METAR Data
IDs: Format: Raw Decoded Include TAF

Data at: 1419 UTC 21 Apr 2021

KRZL 211415Z AUTO 23003KT 10SM BKN006 BKN038 OVC055 01/00 A3013 RMK AO2